Time;durP1;ratioP1;P1;durP2;ratioP2;P2;SDS_P1;SDS_P2;PMS_P1;PMS_P2;Temp;Humidity;BMP_temperature;BMP_pressure;BME280_temperature;BME280_humidity;BME280_pressure;Samples;Min_cycle;Max_cycle;Signal;HPM_P1;HPM_P2
2022/05/07 00:00:38;;;;;;;4.97;4.40;;;;;;;11.14;95.22;100266.50;5114556;28;20024;-73
2022/05/07 00:03:04;;;;;;;6.20;4.50;;;;;;;11.09;95.15;100261.47;5114205;28;20113;-73
2022/05/07 00:05:29;;;;;;;5.57;4.15;;;;;;;11.04;95.24;100258.22;5114697;28;20061;-73
2022/05/07 00:07:54;;;;;;;5.72;4.80;;;;;;;11.05;95.52;100254.69;5114289;28;20027;-73
2022/05/07 00:10:20;;;;;;;6.70;4.70;;;;;;;11.11;95.20;100250.97;5114434;28;20129;-73
2022/05/07 00:12:45;;;;;;;5.75;4.60;;;;;;;11.07;94.71;100252.00;5114204;28;20070;-73
2022/05/07 00:15:11;;;;;;;6.47;4.72;;;;;;;11.10;94.79;100254.50;5114312;28;20526;-73
2022/05/07 00:20:20;;;;;;;6.13;4.13;;;;;;;11.06;94.58;100250.31;5114097;28;20429;-73
2022/05/07 00:22:46;;;;;;;7.43;4.40;;;;;;;11.15;94.56;100257.78;5114045;28;20106;-73
2022/05/07 00:25:11;;;;;;;6.30;4.60;;;;;;;11.10;94.12;100257.13;5114162;28;20064;-73
2022/05/07 00:27:37;;;;;;;4.40;3.85;;;;;;;11.14;94.03;100264.75;5114132;28;20480;-73
2022/05/07 00:30:04;;;;;;;4.60;3.85;;;;;;;11.03;93.96;100246.06;5113746;28;20392;-73
2022/05/07 00:32:30;;;;;;;5.80;3.40;;;;;;;11.09;94.14;100256.25;5114064;28;20031;-73
2022/05/07 00:34:55;;;;;;;5.45;3.83;;;;;;;11.14;94.39;100259.53;5113766;28;20019;-73
2022/05/07 00:37:21;;;;;;;6.90;3.88;;;;;;;11.19;94.10;100256.75;5113926;28;20370;-73
2022/05/07 00:39:47;;;;;;;4.30;3.90;;;;;;;11.18;93.81;100252.44;5113647;28;20164;-73
2022/05/07 00:42:12;;;;;;;5.47;4.00;;;;;;;11.24;93.98;100260.84;5113909;28;20032;-73
2022/05/07 00:44:38;;;;;;;5.07;3.88;;;;;;;11.16;93.64;100239.44;5113635;28;20031;-73
2022/05/07 00:47:24;;;;;;;4.35;3.60;;;;;;;11.25;94.05;100256.53;5113076;28;20136;-73
2022/05/07 00:51:33;;;;;;;4.40;3.45;;;;;;;11.20;93.99;100248.00;5113568;28;20032;-73
2022/05/07 00:52:43;;;;;;;4.10;3.60;;;;;;;11.19;93.59;100238.50;5113620;28;20423;-73
2022/05/07 00:55:11;;;;;;;7.03;3.67;;;;;;;11.30;93.30;100251.13;5113355;27;20031;-73
2022/05/07 00:57:36;;;;;;;5.00;3.95;;;;;;;11.30;93.00;100249.34;5113624;28;20468;-73
2022/05/07 01:00:04;;;;;;;4.07;3.67;;;;;;;11.21;93.51;100226.25;5113216;28;20016;-73
2022/05/07 01:02:30;;;;;;;4.18;3.78;;;;;;;11.22;94.10;100236.63;5113489;28;20426;-74
2022/05/07 01:04:55;;;;;;;6.82;3.67;;;;;;;11.30;94.56;100241.53;5113091;28;20077;-73
2022/05/07 01:07:21;;;;;;;5.03;3.88;;;;;;;11.23;94.38;100235.69;5113345;28;20171;-73
2022/05/07 01:09:47;;;;;;;7.50;4.70;;;;;;;11.22;94.27;100231.41;5112978;28;20027;-73
2022/05/07 01:12:13;;;;;;;6.65;5.07;;;;;;;11.31;94.31;100242.38;5113468;28;20027;-73
2022/05/07 01:14:39;;;;;;;8.07;6.53;;;;;;;11.35;94.02;100243.94;5113297;28;20106;-73
2022/05/07 01:17:08;;;;;;;7.30;6.55;;;;;;;11.35;94.31;100233.53;5112953;28;20173;-73
2022/05/07 01:19:33;;;;;;;10.70;6.32;;;;;;;11.28;94.52;100226.84;5112993;28;20030;-73
2022/05/07 01:21:58;;;;;;;5.85;4.30;;;;;;;11.32;94.90;100231.88;5112799;28;20468;-73
2022/05/07 01:24:24;;;;;;;9.02;4.50;;;;;;;11.31;95.07;100234.56;5112888;28;20020;-73
2022/05/07 01:26:49;;;;;;;5.53;4.30;;;;;;;11.29;94.98;100233.75;5112835;28;20543;-74
2022/05/07 01:29:15;;;;;;;5.10;4.22;;;;;;;11.26;95.24;100228.69;5113226;28;20029;-73
2022/05/07 01:31:40;;;;;;;9.25;5.90;;;;;;;11.32;94.81;100225.81;5112942;28;20464;-73
2022/05/07 01:34:06;;;;;;;13.05;11.63;;;;;;;11.34;94.95;100229.22;5112639;28;20159;-73
2022/05/07 01:36:31;;;;;;;15.43;12.45;;;;;;;11.30;95.32;100222.44;5112765;27;20106;-73
2022/05/07 01:38:57;;;;;;;11.45;9.43;;;;;;;11.32;95.85;100223.19;5112323;28;20020;-73
2022/05/07 01:41:22;;;;;;;10.95;9.82;;;;;;;11.32;96.07;100225.81;5112650;28;20027;-73
2022/05/07 01:43:47;;;;;;;13.85;10.40;;;;;;;11.22;95.83;100212.31;5112572;28;20043;-73
2022/05/07 01:48:57;;;;;;;7.95;6.03;;;;;;;11.22;96.64;100218.38;5112137;28;20524;-73
2022/05/07 01:51:22;;;;;;;5.72;5.13;;;;;;;11.30;96.83;100220.66;5112542;28;20027;-73
2022/05/07 01:53:47;;;;;;;8.13;5.43;;;;;;;11.34;96.82;100224.00;5112465;28;20024;-73
2022/05/07 01:56:13;;;;;;;6.70;4.55;;;;;;;11.35;96.88;100223.09;5112523;28;20491;-73
2022/05/07 01:58:38;;;;;;;8.57;5.63;;;;;;;11.36;96.62;100217.78;5112573;28;20031;-73
2022/05/07 02:01:04;;;;;;;8.52;6.28;;;;;;;11.44;96.80;100223.56;5112139;28;20468;-73
2022/05/07 02:03:30;;;;;;;9.45;5.88;;;;;;;11.43;96.69;100218.41;5112732;28;20020;-73
2022/05/07 02:05:56;;;;;;;10.07;6.85;;;;;;;11.37;96.91;100208.22;5112035;28;20426;-73
2022/05/07 02:08:21;;;;;;;9.98;6.25;;;;;;;11.29;96.55;100202.47;5112505;28;20020;-73
2022/05/07 02:10:46;;;;;;;13.43;8.52;;;;;;;11.42;96.62;100219.31;5112495;28;20579;-73
2022/05/07 02:13:12;;;;;;;13.85;8.60;;;;;;;11.42;96.47;100216.72;5112156;28;20030;-73
2022/05/07 02:15:37;;;;;;;17.10;9.00;;;;;;;11.39;96.70;100211.63;5112312;28;20144;-73
2022/05/07 02:18:03;;;;;;;16.40;9.40;;;;;;;11.46;97.24;100223.47;5112071;28;20230;-73
2022/05/07 02:20:28;;;;;;;18.15;11.02;;;;;;;11.43;97.35;100215.81;5115313;28;20372;-73
2022/05/07 02:22:57;;;;;;;21.50;12.38;;;;;;;11.46;97.58;100224.34;5116355;28;20023;-73
2022/05/07 02:25:23;;;;;;;20.58;14.05;;;;;;;11.47;98.07;100220.81;5116750;28;20383;-73
2022/05/07 02:27:49;;;;;;;28.48;17.33;;;;;;;11.52;97.51;100220.63;5116564;28;20480;-73
2022/05/07 02:30:15;;;;;;;32.20;18.23;;;;;;;11.49;97.58;100211.16;5116436;28;20055;-73
2022/05/07 02:32:40;;;;;;;28.63;16.48;;;;;;;11.49;97.82;100212.94;5116320;28;20114;-73
2022/05/07 02:35:06;;;;;;;30.00;17.33;;;;;;;11.55;98.14;100225.72;5115873;27;20375;-73
2022/05/07 02:37:32;;;;;;;37.08;20.05;;;;;;;11.49;98.51;100219.00;5116364;28;20031;-73
2022/05/07 02:39:57;;;;;;;25.08;16.67;;;;;;;11.55;97.75;100225.72;5115878;28;20020;-73
2022/05/07 02:42:39;;;;;;;16.70;11.05;;;;;;;11.55;97.88;100224.88;5116298;28;20035;-73
2022/05/07 02:45:06;;;;;;;12.45;8.27;;;;;;;11.54;96.73;100228.38;5115933;28;20491;-73
2022/05/07 02:47:42;;;;;;;8.65;5.82;;;;;;;11.42;95.84;100212.34;5116016;28;20048;-73
2022/05/07 02:50:09;;;;;;;5.85;4.70;;;;;;;11.42;95.46;100220.19;5115879;27;20426;-73
2022/05/07 02:52:35;;;;;;;9.90;4.75;;;;;;;11.27;95.02;100215.56;5115839;28;20383;-73
2022/05/07 02:55:06;;;;;;;7.15;4.78;;;;;;;11.30;95.51;100230.25;5115700;28;20024;-73
2022/05/07 02:57:32;;;;;;;6.60;5.28;;;;;;;11.26;95.37;100231.28;5115877;28;20387;-73
2022/05/07 02:59:58;;;;;;;7.60;5.63;;;;;;;11.13;94.87;100221.34;5115436;28;20056;-73
2022/05/07 03:02:23;;;;;;;6.38;5.55;;;;;;;11.07;95.47;100213.75;5115644;28;20085;-73
2022/05/07 03:04:50;;;;;;;7.60;6.25;;;;;;;11.08;95.57;100235.44;5115845;28;20084;-73
2022/05/07 03:07:16;;;;;;;6.90;5.40;;;;;;;10.99;95.69;100228.84;5115766;27;20034;-73
2022/05/07 03:09:41;;;;;;;8.07;5.95;;;;;;;11.03;96.33;100237.41;5115640;28;20031;-73
2022/05/07 03:12:09;;;;;;;8.25;6.65;;;;;;;10.98;95.69;100221.94;5115272;28;20034;-73
2022/05/07 03:14:34;;;;;;;9.15;7.10;;;;;;;11.09;94.83;100235.41;5115412;27;20027;-73
2022/05/07 03:17:00;;;;;;;8.50;7.57;;;;;;;11.11;94.62;100233.56;5115143;28;20382;-73
2022/05/07 03:19:25;;;;;;;10.80;7.05;;;;;;;11.06;94.17;100232.06;5115467;28;20053;-73
2022/05/07 03:21:51;;;;;;;10.73;7.30;;;;;;;11.03;94.63;100227.81;5115459;28;20027;-73
2022/05/07 03:24:16;;;;;;;9.65;7.75;;;;;;;11.05;95.23;100222.56;5115090;28;20106;-73
2022/05/07 03:26:42;;;;;;;8.43;7.20;;;;;;;11.15;95.61;100242.97;5115310;28;20038;-73
2022/05/07 03:29:07;;;;;;;9.88;7.13;;;;;;;11.14;96.11;100241.28;5115249;28;20044;-73
2022/05/07 03:31:33;;;;;;;8.02;6.60;;;;;;;11.13;96.35;100231.78;5115075;28;20050;-73
2022/05/07 03:33:58;;;;;;;12.40;7.32;;;;;;;11.17;96.53;100235.97;5115346;28;20488;-73
2022/05/07 03:36:24;;;;;;;11.27;7.65;;;;;;;11.25;96.13;100238.25;5115264;28;20053;-73
2022/05/07 03:38:49;;;;;;;15.40;8.52;;;;;;;11.24;94.69;100226.97;5114997;28;20034;-73
2022/05/07 03:41:15;;;;;;;15.60;10.50;;;;;;;11.28;94.32;100222.47;5114724;28;20019;-73
2022/05/07 03:43:40;;;;;;;13.95;10.10;;;;;;;11.32;94.31;100231.88;5114956;28;20020;-73
2022/05/07 03:46:06;;;;;;;16.55;9.77;;;;;;;11.41;94.10;100236.72;5114548;28;20024;-73
2022/05/07 03:48:32;;;;;;;11.77;9.25;;;;;;;11.45;94.06;100221.78;5114991;28;20485;-73
2022/05/07 03:50:59;;;;;;;12.43;9.25;;;;;;;11.58;93.56;100240.41;5114713;28;20077;-74
2022/05/07 03:53:30;;;;;;;10.23;8.02;;;;;;;11.64;93.26;100234.94;5113530;28;20451;-73
2022/05/07 03:56:00;;;;;;;14.82;9.00;;;;;;;11.70;93.46;100226.84;5114515;28;20022;-74
2022/05/07 03:58:26;;;;;;;10.33;8.37;;;;;;;11.92;93.15;100237.25;5114661;28;20134;-73
2022/05/07 04:00:53;;;;;;;12.93;9.05;;;;;;;12.07;92.55;100223.53;5115017;28;20527;-73
2022/05/07 04:03:19;;;;;;;14.07;9.85;;;;;;;12.60;91.04;100248.19;5114536;28;20058;-73
2022/05/07 04:05:45;;;;;;;12.32;9.90;;;;;;;13.06;89.39;100246.06;5114669;27;20024;-73
2022/05/07 04:08:10;;;;;;;19.17;12.45;;;;;;;13.54;86.99;100249.88;5114237;28;20560;-73
2022/05/07 04:10:36;;;;;;;19.15;14.90;;;;;;;14.10;83.72;100235.69;5114410;28;20023;-73
2022/05/07 04:13:01;;;;;;;20.30;15.57;;;;;;;15.12;79.52;100243.28;5113964;28;20480;-72
2022/05/07 04:15:26;;;;;;;19.67;14.57;;;;;;;16.15;73.77;100240.00;5114544;28;20040;-72
2022/05/07 04:17:53;;;;;;;16.27;13.63;;;;;;;16.58;69.55;100238.22;5114450;28;20033;-72
2022/05/07 04:20:18;;;;;;;15.02;12.38;;;;;;;16.64;69.55;100243.13;5114028;28;20030;-72
2022/05/07 04:22:44;;;;;;;19.05;12.55;;;;;;;16.73;69.46;100236.47;5114290;28;20020;-72
2022/05/07 04:25:12;;;;;;;15.00;12.30;;;;;;;16.96;67.81;100246.38;5113916;28;20027;-72
2022/05/07 04:27:38;;;;;;;13.75;11.30;;;;;;;16.94;66.33;100232.47;5114304;28;20380;-72
2022/05/07 04:30:03;;;;;;;13.07;11.50;;;;;;;17.07;66.00;100242.22;5113971;28;20036;-72
2022/05/07 04:32:29;;;;;;;13.95;10.68;;;;;;;17.41;64.28;100240.88;5113898;27;20015;-72
2022/05/07 04:34:55;;;;;;;13.00;9.82;;;;;;;18.43;62.21;100244.50;5113989;28;20108;-72
2022/05/07 04:37:21;;;;;;;13.55;10.32;;;;;;;19.84;57.72;100244.84;5113733;28;20043;-71
2022/05/07 04:39:47;;;;;;;17.00;12.43;;;;;;;20.56;53.78;100246.41;5113680;28;20028;-72
2022/05/07 04:42:12;;;;;;;15.75;11.80;;;;;;;20.29;53.30;100255.50;5113020;28;20472;-72
2022/05/07 04:44:38;;;;;;;12.25;10.50;;;;;;;19.36;54.06;100251.97;5114281;28;20054;-72
2022/05/07 04:47:05;;;;;;;15.35;10.95;;;;;;;18.36;57.54;100263.47;5113684;28;20047;-72
2022/05/07 04:49:31;;;;;;;13.68;11.35;;;;;;;17.86;59.96;100251.94;5113958;28;20024;-72
2022/05/07 04:51:57;;;;;;;13.20;11.38;;;;;;;17.79;60.11;100251.53;5113753;27;20024;-72
2022/05/07 04:54:22;;;;;;;17.27;11.23;;;;;;;18.08;59.49;100268.03;5113463;28;20026;-72
2022/05/07 04:56:49;;;;;;;13.65;11.75;;;;;;;17.84;60.20;100252.06;5113426;28;20026;-72
2022/05/07 04:59:15;;;;;;;13.02;11.50;;;;;;;17.92;60.09;100255.03;5113398;28;20020;-72
2022/05/07 05:01:41;;;;;;;15.23;11.48;;;;;;;18.72;57.24;100254.00;5113627;28;20035;-72
2022/05/07 05:04:07;;;;;;;16.92;11.60;;;;;;;18.39;57.45;100248.28;5113308;28;20089;-72
2022/05/07 05:06:32;;;;;;;14.00;11.00;;;;;;;18.08;59.52;100267.19;5113390;28;20036;-72
2022/05/07 05:08:58;;;;;;;12.98;10.90;;;;;;;17.72;60.47;100266.03;5113554;28;20536;-72
2022/05/07 05:11:23;;;;;;;14.00;10.48;;;;;;;17.53;61.83;100270.81;5113054;28;20054;-72
2022/05/07 05:13:49;;;;;;;13.07;10.65;;;;;;;17.21;63.23;100271.13;5113369;28;20068;-72
2022/05/07 05:16:14;;;;;;;17.52;10.77;;;;;;;17.09;64.76;100269.28;5113083;28;20084;-72
2022/05/07 05:18:40;;;;;;;12.48;9.45;;;;;;;17.03;64.81;100270.50;5113090;28;20023;-72
2022/05/07 05:21:06;;;;;;;15.55;10.75;;;;;;;17.04;66.08;100271.34;5112803;28;20035;-72
2022/05/07 05:23:31;;;;;;;13.25;10.02;;;;;;;17.11;66.52;100273.50;5113114;28;20424;-72
2022/05/07 05:25:57;;;;;;;11.40;10.20;;;;;;;17.19;65.97;100268.59;5112901;28;20068;-72
2022/05/07 05:28:22;;;;;;;13.93;10.10;;;;;;;17.24;66.08;100273.56;5112908;28;20030;-72
2022/05/07 05:30:51;;;;;;;12.55;11.00;;;;;;;17.17;65.56;100277.53;5112828;28;20034;-72
2022/05/07 05:33:18;;;;;;;14.93;10.73;;;;;;;17.04;65.96;100279.25;5112750;28;20043;-72
2022/05/07 05:35:43;;;;;;;11.70;9.57;;;;;;;17.00;67.27;100280.38;5113149;28;20032;-72
2022/05/07 05:38:08;;;;;;;14.23;9.95;;;;;;;16.88;68.17;100271.47;5112401;28;20027;-72
2022/05/07 05:40:34;;;;;;;16.27;10.88;;;;;;;16.90;68.80;100275.72;5112548;28;20115;-72
2022/05/07 05:43:00;;;;;;;16.77;10.55;;;;;;;16.94;68.90;100279.84;5112900;28;20026;-72
2022/05/07 05:45:27;;;;;;;14.70;10.10;;;;;;;17.16;68.75;100289.00;5112728;28;20023;-72
2022/05/07 05:47:53;;;;;;;15.57;10.38;;;;;;;17.30;67.89;100286.31;5112497;28;20039;-72
2022/05/07 05:50:18;;;;;;;14.85;9.65;;;;;;;17.28;67.80;100276.84;5112315;28;20357;-72
2022/05/07 05:52:43;;;;;;;16.40;10.38;;;;;;;17.24;67.54;100285.88;5112583;28;20031;-72
2022/05/07 05:55:09;;;;;;;13.35;9.70;;;;;;;17.25;67.54;100295.47;5111383;28;20141;-72
2022/05/07 05:57:34;;;;;;;11.73;9.65;;;;;;;17.15;68.49;100289.91;5112477;28;20508;-73
2022/05/07 06:00:00;;;;;;;14.25;11.15;;;;;;;17.07;69.79;100286.97;5112574;28;20015;-71
2022/05/07 06:02:25;;;;;;;14.02;12.50;;;;;;;17.01;70.50;100297.84;5112413;28;20027;-72
2022/05/07 06:04:50;;;;;;;18.10;12.98;;;;;;;17.01;71.16;100292.59;5112631;28;20379;-72
2022/05/07 06:07:16;;;;;;;18.13;14.77;;;;;;;17.11;71.15;100299.81;5112303;28;20035;-73
2022/05/07 06:09:41;;;;;;;18.45;14.57;;;;;;;17.25;70.80;100312.09;5112544;28;20028;-72
2022/05/07 06:12:07;;;;;;;19.90;16.67;;;;;;;17.27;70.92;100301.47;5112343;28;20114;-71
2022/05/07 06:14:32;;;;;;;18.05;16.05;;;;;;;17.48;69.83;100317.66;5112475;28;20023;-72
2022/05/07 06:16:58;;;;;;;17.77;13.73;;;;;;;17.53;68.37;100298.00;5111977;28;20039;-71
2022/05/07 06:19:23;;;;;;;24.52;14.05;;;;;;;17.58;67.50;100295.06;5112060;28;20024;-72
2022/05/07 06:21:48;;;;;;;18.00;14.52;;;;;;;17.74;67.84;100305.44;5112256;28;20030;-72
2022/05/07 06:29:41;;;;;;;17.48;14.18;;;;;;;18.58;66.40;100308.53;5112161;28;20034;-72
2022/05/07 06:32:07;;;;;;;16.55;13.48;;;;;;;18.92;63.97;100311.50;5111999;28;20023;-72
2022/05/07 06:34:32;;;;;;;18.85;13.57;;;;;;;19.34;62.57;100309.34;5112181;28;20149;-72
2022/05/07 06:36:58;;;;;;;18.48;13.00;;;;;;;20.52;60.46;100309.34;5111973;28;20098;-72
2022/05/07 06:39:23;;;;;;;17.48;12.13;;;;;;;23.15;52.31;100290.09;5111837;28;20471;-71
2022/05/07 06:41:50;;;;;;;14.93;10.55;;;;;;;24.24;46.23;100300.63;5112058;28;20035;-72
2022/05/07 06:44:15;;;;;;;12.30;9.55;;;;;;;25.69;42.91;100309.75;5111762;28;20671;-72
2022/05/07 06:46:40;;;;;;;10.95;7.50;;;;;;;27.92;36.13;100307.03;5111835;28;20095;-72
2022/05/07 06:49:06;;;;;;;12.05;7.82;;;;;;;26.86;35.83;100304.94;5111960;28;20115;-72
2022/05/07 06:51:33;;;;;;;10.02;6.78;;;;;;;25.73;37.28;100303.97;5111901;28;20480;-72
2022/05/07 06:53:58;;;;;;;8.35;7.40;;;;;;;26.09;37.11;100315.47;5112072;28;20032;-72
2022/05/07 06:56:24;;;;;;;9.70;7.22;;;;;;;25.44;37.91;100312.19;5111828;28;20026;-72
2022/05/07 06:58:49;;;;;;;12.52;8.15;;;;;;;26.59;38.16;100308.66;5111929;28;20026;-72
2022/05/07 07:01:14;;;;;;;12.10;7.78;;;;;;;31.50;30.48;100303.59;5111624;28;20387;-72
2022/05/07 07:03:40;;;;;;;10.60;6.95;;;;;;;32.37;27.03;100315.97;5111877;28;20067;-72
2022/05/07 07:06:06;;;;;;;11.77;7.32;;;;;;;33.08;25.97;100315.78;5113717;28;20031;-72
2022/05/07 07:08:32;;;;;;;8.13;6.28;;;;;;;33.50;25.18;100316.53;5115905;28;20034;-72
2022/05/07 07:10:58;;;;;;;8.88;5.45;;;;;;;35.54;22.27;100315.56;5114493;28;20028;-72
2022/05/07 07:13:24;;;;;;;5.70;5.10;;;;;;;34.34;22.62;100323.22;5115581;27;20042;-72
2022/05/07 07:15:50;;;;;;;9.45;5.88;;;;;;;32.61;23.93;100320.06;5115609;28;20099;-74
2022/05/07 07:18:16;;;;;;;7.13;5.65;;;;;;;33.61;22.97;100325.91;5115284;28;20375;-72
2022/05/07 07:20:43;;;;;;;7.70;6.47;;;;;;;37.69;19.60;100323.69;5114042;28;20107;-72
2022/05/07 07:23:11;;;;;;;7.75;5.35;;;;;;;38.18;18.40;100316.22;5115344;28;20080;-72
2022/05/07 07:25:37;;;;;;;8.98;6.10;;;;;;;37.63;18.53;100320.03;5115202;28;20384;-72
2022/05/07 07:28:03;;;;;;;6.82;4.85;;;;;;;38.13;18.11;100308.72;5115338;28;20028;-72
2022/05/07 07:30:28;;;;;;;8.60;5.03;;;;;;;41.09;15.74;100311.25;5114952;27;20057;-72
2022/05/07 07:32:53;;;;;;;6.72;3.90;;;;;;;43.84;13.47;100308.34;5115056;28;20024;-77
2022/05/07 07:35:19;;;;;;;9.32;5.13;;;;;;;45.41;11.93;100308.88;5115187;28;20529;-77
2022/05/07 07:37:45;;;;;;;5.45;3.70;;;;;;;44.78;12.41;100300.44;5115401;28;20076;-76
2022/05/07 07:40:15;;;;;;;11.07;4.72;;;;;;;41.48;14.14;100282.94;5114807;28;20053;-75
2022/05/07 07:42:41;;;;;;;8.25;4.80;;;;;;;42.57;14.30;100296.00;5115080;28;20028;-76
2022/05/07 07:48:07;;;;;;;6.10;3.90;;;;;;;45.21;12.14;100298.81;5115110;28;20058;-78
2022/05/07 07:50:34;;;;;;;6.20;3.90;;;;;;;46.29;11.36;100293.22;5114815;28;20027;-78
2022/05/07 07:53:02;;;;;;;7.45;3.83;;;;;;;47.40;10.24;100298.34;5115001;28;20044;-78
2022/05/07 07:55:28;;;;;;;5.45;3.70;;;;;;;46.20;10.68;100303.25;5114507;28;20015;-78
2022/05/07 07:57:58;;;;;;;9.05;4.28;;;;;;;43.22;12.39;100288.28;5114705;28;20142;-79
2022/05/07 08:00:25;;;;;;;5.68;4.00;;;;;;;44.76;12.25;100288.94;5114413;28;20056;-79
2022/05/07 08:02:56;;;;;;;6.90;4.05;;;;;;;46.06;10.92;100294.81;5114941;28;20019;-79
2022/05/07 08:05:28;;;;;;;8.50;3.90;;;;;;;46.14;10.60;100293.34;5114414;28;20517;-79
2022/05/07 08:13:23;;;;;;;5.47;3.10;;;;;;;45.38;10.95;100284.66;5114276;28;20116;-79
2022/05/07 08:15:49;;;;;;;6.05;3.63;;;;;;;45.39;11.04;100283.56;5112268;28;20047;-79
2022/05/07 08:18:15;;;;;;;3.67;2.92;;;;;;;44.65;11.89;100279.09;5113023;28;20028;-78
2022/05/07 08:20:41;;;;;;;5.82;3.50;;;;;;;44.12;11.11;100284.97;5114264;28;20046;-78
2022/05/07 08:23:08;;;;;;;5.55;3.40;;;;;;;41.33;13.01;100278.94;5114150;28;20484;-78
2022/05/07 08:25:33;;;;;;;9.07;3.72;;;;;;;36.97;15.17;100272.03;5114035;28;20543;-78
2022/05/07 08:27:59;;;;;;;7.10;3.40;;;;;;;33.91;18.45;100275.00;5114234;28;20016;-78
2022/05/07 08:30:24;;;;;;;10.05;4.57;;;;;;;31.72;20.74;100263.19;5113886;28;20110;-78
2022/05/07 08:32:51;;;;;;;7.18;3.42;;;;;;;30.07;23.70;100282.44;5114080;28;20353;-78
2022/05/07 08:35:16;;;;;;;5.68;4.30;;;;;;;29.06;24.58;100278.13;5113853;28;20387;-78
2022/05/07 08:37:42;;;;;;;5.30;3.70;;;;;;;28.24;25.70;100269.50;5113791;27;20026;-78
2022/05/07 08:40:09;;;;;;;5.85;3.80;;;;;;;27.57;27.30;100268.88;5114021;28;20023;-78
2022/05/07 08:42:38;;;;;;;5.68;4.57;;;;;;;27.14;27.54;100257.44;5113714;28;20476;-78
2022/05/07 08:45:04;;;;;;;12.90;4.82;;;;;;;26.60;27.79;100271.09;5113877;28;20031;-78
2022/05/07 08:47:29;;;;;;;8.63;4.90;;;;;;;25.98;28.76;100258.81;5113512;28;20388;-78
2022/05/07 08:49:55;;;;;;;7.20;4.88;;;;;;;25.50;29.14;100260.91;5113510;28;20115;-77
2022/05/07 08:52:22;;;;;;;6.50;4.38;;;;;;;25.26;30.13;100263.34;5113215;28;20115;-77
2022/05/07 08:54:48;;;;;;;6.35;3.53;;;;;;;25.17;30.48;100266.91;5113772;28;20020;-78
2022/05/07 08:57:13;;;;;;;8.30;4.22;;;;;;;25.18;30.76;100274.75;5113527;28;20031;-78
2022/05/07 08:59:39;;;;;;;9.45;4.80;;;;;;;24.92;30.08;100258.63;5113431;28;20024;-78
2022/05/07 09:02:05;;;;;;;9.32;6.15;;;;;;;24.67;30.36;100273.47;5113578;28;20036;-77
2022/05/07 09:04:31;;;;;;;6.63;3.88;;;;;;;24.78;31.08;100273.28;5112008;28;20542;-77
2022/05/07 09:06:57;;;;;;;9.93;4.22;;;;;;;24.90;31.26;100263.25;5113373;28;20057;-77
2022/05/07 09:09:23;;;;;;;5.88;3.67;;;;;;;25.11;30.23;100268.34;5113258;27;20034;-78
2022/05/07 09:11:49;;;;;;;5.60;3.65;;;;;;;25.26;28.42;100269.50;5113129;28;20032;-78
2022/05/07 09:14:18;;;;;;;6.32;3.28;;;;;;;25.06;28.58;100267.94;5113439;28;20027;-78
2022/05/07 09:16:50;;;;;;;4.25;3.58;;;;;;;25.01;29.16;100263.03;5113333;28;20111;-78
2022/05/07 09:19:27;;;;;;;5.55;3.35;;;;;;;25.02;29.45;100264.72;5112901;28;20023;-78
2022/05/07 09:22:11;;;;;;;8.70;4.45;;;;;;;24.89;29.45;100257.06;5112441;28;20387;-78
2022/05/07 09:24:37;;;;;;;7.43;3.67;;;;;;;25.12;29.80;100262.88;5108772;28;20468;-78
2022/05/07 09:27:04;;;;;;;6.88;3.95;;;;;;;25.23;30.59;100259.13;5111586;28;20207;-78
2022/05/07 09:29:30;;;;;;;4.38;3.47;;;;;;;25.24;30.22;100249.31;5111202;28;20020;-78
2022/05/07 09:32:07;;;;;;;5.78;3.63;;;;;;;25.14;28.74;100257.38;5108748;28;20685;-79
2022/05/07 09:37:19;;;;;;;3.88;2.47;;;;;;;24.76;28.01;100243.28;5112564;28;20050;-78
2022/05/07 09:39:50;;;;;;;6.13;3.25;;;;;;;24.40;27.99;100258.31;5089848;28;20036;-78
2022/05/07 09:42:19;;;;;;;5.30;3.70;;;;;;;24.08;29.71;100235.53;5089781;28;20044;-78
2022/05/07 09:44:45;;;;;;;5.25;3.58;;;;;;;24.09;29.88;100249.66;5085985;28;20044;-73
2022/05/07 09:47:12;;;;;;;6.97;3.50;;;;;;;24.02;30.67;100256.53;5088136;28;20108;-72
2022/05/07 09:52:30;;;;;;;7.60;3.33;;;;;;;23.50;30.33;100261.31;5089024;28;20039;-72
2022/05/07 09:57:41;;;;;;;7.03;3.10;;;;;;;23.41;31.30;100244.38;5089398;28;20051;-72
2022/05/07 10:00:13;;;;;;;5.22;3.03;;;;;;;23.36;31.88;100247.47;5089814;28;20405;-72
2022/05/07 10:03:03;;;;;;;4.22;3.40;;;;;;;23.49;32.09;100249.00;5089382;28;20499;-72
2022/05/07 10:05:57;;;;;;;6.95;4.07;;;;;;;23.47;33.05;100251.81;5089310;28;20044;-72
2022/05/07 10:08:39;;;;;;;4.85;3.30;;;;;;;23.31;32.99;100246.22;5089363;28;20028;-72
2022/05/07 10:11:05;;;;;;;7.18;3.97;;;;;;;23.09;32.79;100241.97;5103859;28;20035;-72
2022/05/07 10:13:32;;;;;;;5.07;3.50;;;;;;;22.86;33.95;100236.03;5111951;28;20028;-72
2022/05/07 10:16:02;;;;;;;4.65;3.60;;;;;;;22.74;34.40;100231.78;5112359;28;20024;-72
2022/05/07 10:18:41;;;;;;;6.38;3.80;;;;;;;22.72;34.52;100231.94;5112108;28;20049;-72
2022/05/07 10:21:14;;;;;;;4.85;3.47;;;;;;;22.75;35.28;100236.13;5112554;28;20024;-72
2022/05/07 10:23:53;;;;;;;5.15;3.72;;;;;;;22.80;34.71;100225.97;5111767;28;20019;-72
2022/05/07 10:26:21;;;;;;;4.30;3.60;;;;;;;22.82;32.88;100222.16;5112107;28;20031;-72
2022/05/07 10:28:46;;;;;;;5.22;3.10;;;;;;;22.85;33.37;100218.41;5111691;28;20028;-72
2022/05/07 10:31:22;;;;;;;7.70;3.70;;;;;;;23.04;33.48;100229.09;5111610;28;20426;-72
2022/05/07 10:33:49;;;;;;;4.40;3.50;;;;;;;23.07;33.14;100230.66;5110012;28;20055;-72
2022/05/07 10:36:15;;;;;;;5.85;3.92;;;;;;;22.90;32.59;100219.72;5112034;28;20046;-72
2022/05/07 10:38:44;;;;;;;4.50;3.42;;;;;;;22.66;33.33;100206.75;5111570;28;20468;-72
2022/05/07 10:41:22;;;;;;;4.88;3.22;;;;;;;22.77;33.40;100204.97;5114700;28;20023;-74
2022/05/07 10:43:56;;;;;;;5.63;3.25;;;;;;;22.94;32.31;100216.78;5116168;28;20027;-74
2022/05/07 10:46:22;;;;;;;5.72;3.47;;;;;;;22.90;32.46;100213.56;5115855;27;20415;-74
2022/05/07 10:48:53;;;;;;;5.20;3.20;;;;;;;22.96;33.52;100194.41;5115715;28;20044;-74
2022/05/07 10:51:33;;;;;;;5.18;3.30;;;;;;;23.25;33.65;100213.03;5115813;28;20035;-74
2022/05/07 10:54:03;;;;;;;9.32;3.88;;;;;;;23.32;32.02;100213.31;5115962;28;20085;-74
2022/05/07 10:56:30;;;;;;;4.03;3.08;;;;;;;23.28;32.38;100209.28;5115778;28;20023;-74
2022/05/07 10:58:58;;;;;;;5.45;3.22;;;;;;;23.40;32.85;100210.81;5115867;28;20020;-73
2022/05/07 11:01:25;;;;;;;4.38;3.47;;;;;;;23.50;31.89;100203.66;5115593;28;20020;-74
2022/05/07 11:04:07;;;;;;;4.93;3.70;;;;;;;23.37;30.37;100201.28;5115931;28;20067;-74
2022/05/07 11:06:51;;;;;;;4.88;3.88;;;;;;;23.02;31.11;100208.97;5115702;28;20020;-74
2022/05/07 11:09:22;;;;;;;7.28;3.65;;;;;;;22.97;31.95;100189.97;5115608;28;20034;-74
2022/05/07 11:11:52;;;;;;;4.97;3.53;;;;;;;22.72;31.33;100197.41;5115425;28;20108;-74
2022/05/07 11:14:25;;;;;;;7.82;3.50;;;;;;;22.81;33.06;100201.91;5115652;28;20031;-74
2022/05/07 11:16:58;;;;;;;6.55;3.10;;;;;;;23.06;32.41;100181.16;5115652;28;20055;-73
2022/05/07 11:19:25;;;;;;;3.92;3.10;;;;;;;23.37;32.15;100201.28;5115329;28;20038;-72
2022/05/07 11:21:54;;;;;;;4.15;3.28;;;;;;;23.53;32.35;100184.78;5115366;28;20034;-74
2022/05/07 11:24:20;;;;;;;5.40;3.33;;;;;;;23.74;30.92;100181.13;5115218;28;20047;-73
2022/05/07 11:27:05;;;;;;;5.78;3.67;;;;;;;23.63;30.47;100188.25;5115489;28;20020;-73
2022/05/07 11:29:32;;;;;;;5.63;3.40;;;;;;;23.45;31.14;100197.09;5115011;28;20077;-73
2022/05/07 11:32:00;;;;;;;4.80;2.88;;;;;;;23.59;32.34;100188.69;5115153;28;20380;-74
2022/05/07 11:34:33;;;;;;;4.93;3.42;;;;;;;23.62;32.25;100175.09;5114928;28;20084;-74
2022/05/07 11:37:20;;;;;;;4.18;3.30;;;;;;;23.60;31.66;100174.44;5115039;28;20379;-73
2022/05/07 11:39:50;;;;;;;5.35;3.30;;;;;;;23.57;32.13;100182.69;5114678;28;20028;-73
2022/05/07 11:42:35;;;;;;;6.03;3.63;;;;;;;23.27;32.03;100181.03;5115242;28;20073;-74
2022/05/07 11:47:57;;;;;;;7.50;3.78;;;;;;;22.96;34.01;100182.94;5114716;28;20616;-73
2022/05/07 11:50:34;;;;;;;6.72;3.55;;;;;;;22.93;34.25;100175.28;5114653;27;20484;-74